Time;durP1;ratioP1;P1;durP2;ratioP2;P2;SDS_P1;SDS_P2;PMS_P1;PMS_P2;Temp;Humidity;BMP_temperature;BMP_pressure;BME280_temperature;BME280_humidity;BME280_pressure;Samples;Min_cycle;Max_cycle;Signal;HPM_P1;HPM_P2
2024/03/22 00:01:50;;;;;;;3.70;3.25;;;;;;;;;;5100913;28;20633;-81
2024/03/22 00:04:16;;;;;;;4.15;3.38;;;;;;;;;;5100982;28;20404;-81
2024/03/22 00:06:42;;;;;;;4.32;3.15;;;;;;;;;;5100875;28;20374;-81
2024/03/22 00:09:09;;;;;;;5.00;4.60;;;;;;;;;;5099682;28;20390;-81
2024/03/22 00:11:35;;;;;;;4.78;4.25;;;;;;;;;;5099820;28;20934;-81
2024/03/22 00:14:01;;;;;;;5.28;4.80;;;;;;;;;;5099957;28;20410;-81
2024/03/22 00:16:27;;;;;;;5.20;4.80;;;;;;;;;;5090552;28;20389;-81
2024/03/22 00:18:53;;;;;;;5.75;4.88;;;;;;;;;;5099942;28;20378;-81
2024/03/22 00:21:19;;;;;;;4.85;4.35;;;;;;;;;;5099803;28;20399;-81
2024/03/22 00:23:45;;;;;;;5.50;5.00;;;;;;;;;;5100644;28;20430;-81
2024/03/22 00:26:11;;;;;;;6.10;4.63;;;;;;;;;;5100523;28;20704;-81
2024/03/22 00:28:37;;;;;;;4.93;4.22;;;;;;;;;;5099909;28;20393;-81
2024/03/22 00:31:04;;;;;;;5.43;4.05;;;;;;;;;;5098994;28;20401;-81
2024/03/22 00:33:30;;;;;;;4.53;4.13;;;;;;;;;;5098744;28;20414;-81
2024/03/22 00:35:58;;;;;;;4.72;4.03;;;;;;;;;;5099317;28;20661;-81
2024/03/22 00:38:24;;;;;;;4.20;3.80;;;;;;;;;;5099670;28;20402;-81
2024/03/22 00:40:50;;;;;;;5.82;3.72;;;;;;;;;;5099358;28;20381;-81
2024/03/22 00:43:16;;;;;;;4.83;3.70;;;;;;;;;;5098629;28;20396;-81
2024/03/22 00:45:42;;;;;;;4.35;3.95;;;;;;;;;;5099137;28;20390;-81
2024/03/22 00:48:08;;;;;;;4.93;3.70;;;;;;;;;;5098052;28;20393;-81
2024/03/22 00:50:34;;;;;;;5.43;3.80;;;;;;;;;;5098809;28;20377;-81
2024/03/22 00:53:02;;;;;;;4.88;3.13;;;;;;;;;;5098346;28;20377;-81
2024/03/22 00:55:28;;;;;;;4.38;3.83;;;;;;;;;;5098739;28;20902;-81
2024/03/22 00:57:54;;;;;;;4.25;3.38;;;;;;;;;;5098960;28;20464;-81
2024/03/22 01:00:20;;;;;;;4.00;3.53;;;;;;;;;;5099809;28;20377;-81
2024/03/22 01:02:46;;;;;;;4.15;3.80;;;;;;;;;;5098902;28;20382;-81
2024/03/22 01:05:12;;;;;;;4.10;3.70;;;;;;;;;;5098558;28;20848;-81
2024/03/22 01:07:38;;;;;;;4.95;3.97;;;;;;;;;;5099335;28;20453;-81
2024/03/22 01:10:04;;;;;;;4.30;3.90;;;;;;;;;;5099024;28;20389;-81
2024/03/22 01:12:31;;;;;;;3.70;3.40;;;;;;;;;;5099300;28;20386;-81
2024/03/22 01:14:57;;;;;;;4.95;3.50;;;;;;;;;;5098842;28;20397;-81
2024/03/22 01:17:22;;;;;;;4.50;4.13;;;;;;;;;;5099251;28;20424;-81
2024/03/22 01:19:49;;;;;;;4.97;4.57;;;;;;;;;;5102833;28;20782;-81
2024/03/22 01:22:15;;;;;;;5.28;4.07;;;;;;;;;;5102965;28;20369;-81
2024/03/22 01:24:41;;;;;;;5.03;3.90;;;;;;;;;;5103393;28;20389;-81
2024/03/22 01:27:07;;;;;;;4.90;3.95;;;;;;;;;;5102305;28;20389;-81
2024/03/22 01:29:33;;;;;;;3.75;3.20;;;;;;;;;;5103073;28;20439;-81
2024/03/22 01:31:59;;;;;;;5.72;2.72;;;;;;;;;;5102229;28;20966;-81
2024/03/22 01:34:25;;;;;;;4.15;2.92;;;;;;;;;;5102589;28;20418;-81
2024/03/22 01:36:52;;;;;;;3.17;2.87;;;;;;;;;;5102505;28;20388;-81
2024/03/22 01:39:20;;;;;;;3.40;3.10;;;;;;;;;;5102920;28;20385;-81
2024/03/22 01:41:46;;;;;;;4.13;3.30;;;;;;;;;;5102380;28;20840;-80
2024/03/22 01:44:13;;;;;;;5.18;3.50;;;;;;;;;;5102749;28;20385;-81
2024/03/22 01:46:40;;;;;;;3.78;3.20;;;;;;;;;;5102865;28;20879;-81
2024/03/22 01:49:06;;;;;;;3.20;2.90;;;;;;;;;;5102469;28;20386;-81
2024/03/22 01:51:32;;;;;;;3.35;3.03;;;;;;;;;;5101757;28;20370;-81
2024/03/22 01:53:59;;;;;;;4.57;2.97;;;;;;;;;;5102166;28;20413;-81
2024/03/22 01:56:25;;;;;;;3.40;3.10;;;;;;;;;;5102598;28;20374;-81
2024/03/22 01:58:51;;;;;;;4.60;3.33;;;;;;;;;;5102769;28;20428;-81
2024/03/22 02:01:17;;;;;;;5.82;5.15;;;;;;;;;;5102198;28;20852;-81
2024/03/22 02:03:43;;;;;;;4.15;3.22;;;;;;;;;;5102375;28;20409;-81
2024/03/22 02:06:09;;;;;;;3.60;3.10;;;;;;;;;;5102606;28;20405;-81
2024/03/22 02:08:35;;;;;;;3.92;3.05;;;;;;;;;;5101897;28;20410;-81
2024/03/22 02:11:02;;;;;;;3.40;3.10;;;;;;;;;;5102411;28;20389;-81
2024/03/22 02:13:28;;;;;;;3.97;3.30;;;;;;;;;;5102006;28;20429;-81
2024/03/22 02:15:54;;;;;;;4.10;3.70;;;;;;;;;;5102193;28;20370;-81
2024/03/22 02:18:20;;;;;;;4.50;3.78;;;;;;;;;;5101544;28;20446;-81
2024/03/22 02:20:46;;;;;;;4.23;3.90;;;;;;;;;;5101968;28;20411;-81
2024/03/22 02:23:11;;;;;;;4.30;3.95;;;;;;;;;;5101893;28;20855;-81
2024/03/22 02:25:37;;;;;;;4.40;4.00;;;;;;;;;;5102225;28;20400;-81
2024/03/22 02:28:03;;;;;;;5.80;4.00;;;;;;;;;;5101765;28;20412;-81
2024/03/22 02:30:29;;;;;;;4.43;4.13;;;;;;;;;;5100906;28;20376;-81
2024/03/22 02:32:55;;;;;;;5.30;4.10;;;;;;;;;;5101503;28;20461;-81
2024/03/22 02:35:21;;;;;;;5.25;4.18;;;;;;;;;;5102266;28;20388;-81
2024/03/22 02:37:47;;;;;;;5.20;4.20;;;;;;;;;;5101293;28;20408;-81
2024/03/22 02:40:13;;;;;;;4.43;4.03;;;;;;;;;;5101984;28;20378;-81
2024/03/22 02:42:39;;;;;;;4.90;4.40;;;;;;;;;;5102081;28;20472;-81
2024/03/22 02:45:06;;;;;;;4.60;4.20;;;;;;;;;;5101854;28;20488;-81
2024/03/22 02:47:32;;;;;;;4.70;4.30;;;;;;;;;;5101149;28;20377;-81
2024/03/22 02:49:58;;;;;;;3.88;3.53;;;;;;;;;;5101705;28;20747;-81
2024/03/22 02:52:24;;;;;;;4.40;4.00;;;;;;;;;;5100874;28;20406;-81
2024/03/22 02:54:50;;;;;;;4.30;3.90;;;;;;;;;;5101398;28;20398;-81
2024/03/22 02:57:16;;;;;;;4.15;3.75;;;;;;;;;;5101735;28;20389;-81
2024/03/22 02:59:42;;;;;;;4.50;4.10;;;;;;;;;;5101590;28;20374;-81
2024/03/22 03:02:08;;;;;;;5.27;4.07;;;;;;;;;;5101659;28;20381;-81
2024/03/22 03:04:34;;;;;;;4.75;4.38;;;;;;;;;;5101843;28;20382;-81
2024/03/22 03:07:00;;;;;;;5.57;4.55;;;;;;;;;;5101224;28;20600;-81
2024/03/22 03:09:26;;;;;;;5.10;4.43;;;;;;;;;;5100702;28;20476;-81
2024/03/22 03:11:52;;;;;;;4.60;4.20;;;;;;;;;;5101240;28;20386;-81
2024/03/22 03:14:18;;;;;;;5.28;4.32;;;;;;;;;;5100909;28;20448;-81
2024/03/22 03:16:44;;;;;;;5.43;4.00;;;;;;;;;;5101407;28;20386;-81
2024/03/22 03:19:10;;;;;;;4.27;3.70;;;;;;;;;;5101262;28;20374;-81
2024/03/22 03:21:36;;;;;;;3.70;3.40;;;;;;;;;;5100974;28;20409;-81
2024/03/22 03:24:02;;;;;;;4.60;3.40;;;;;;;;;;5101421;28;20384;-81
2024/03/22 03:26:28;;;;;;;3.83;3.53;;;;;;;;;;5100677;28;20402;-81
2024/03/22 03:28:55;;;;;;;4.00;3.63;;;;;;;;;;5100540;28;20797;-81
2024/03/22 03:31:21;;;;;;;3.87;3.50;;;;;;;;;;5100850;28;20406;-81
2024/03/22 03:33:47;;;;;;;4.18;3.80;;;;;;;;;;5100209;28;20413;-81
2024/03/22 03:36:13;;;;;;;4.50;4.10;;;;;;;;;;5100607;28;20840;-81
2024/03/22 03:38:39;;;;;;;4.65;4.25;;;;;;;;;;5101244;28;20451;-81
2024/03/22 03:41:05;;;;;;;4.85;4.45;;;;;;;;;;5099882;28;20370;-81
2024/03/22 03:43:31;;;;;;;5.03;4.53;;;;;;;;;;5100761;28;20410;-81
2024/03/22 03:45:57;;;;;;;4.00;3.60;;;;;;;;;;5101012;28;20382;-81
2024/03/22 03:48:23;;;;;;;4.07;3.67;;;;;;;;;;5100442;28;20386;-80
2024/03/22 03:50:58;;;;;;;4.50;3.80;;;;;;;;;;5099770;28;20401;-81
2024/03/22 03:53:24;;;;;;;6.45;5.80;;;;;;;;;;5099305;28;20401;-81
2024/03/22 03:55:50;;;;;;;4.50;4.03;;;;;;;;;;5100686;28;20374;-81
2024/03/22 03:58:17;;;;;;;6.07;3.70;;;;;;;;;;5100001;28;20859;-81
2024/03/22 04:00:44;;;;;;;4.15;3.70;;;;;;;;;;5100693;28;20864;-81
2024/03/22 04:03:10;;;;;;;4.20;3.80;;;;;;;;;;5100946;28;20434;-80
2024/03/22 04:05:36;;;;;;;4.68;4.18;;;;;;;;;;5100316;28;20385;-81
2024/03/22 04:08:02;;;;;;;4.60;4.13;;;;;;;;;;5099896;28;20378;-81
2024/03/22 04:10:28;;;;;;;5.22;4.15;;;;;;;;;;5081887;28;20374;-81
2024/03/22 04:12:54;;;;;;;4.07;3.67;;;;;;;;;;5100073;28;20698;-80
2024/03/22 04:15:20;;;;;;;4.67;4.17;;;;;;;;;;5100349;28;20412;-81
2024/03/22 04:17:46;;;;;;;5.05;4.13;;;;;;;;;;5099960;28;20397;-82
2024/03/22 04:20:12;;;;;;;6.10;4.18;;;;;;;;;;5100400;28;20437;-81
2024/03/22 04:22:38;;;;;;;4.10;3.63;;;;;;;;;;5101286;28;20415;-80
2024/03/22 04:25:04;;;;;;;3.85;3.55;;;;;;;;;;5100822;28;20411;-80
2024/03/22 04:27:30;;;;;;;5.28;4.00;;;;;;;;;;5099503;28;20743;-81
2024/03/22 04:29:56;;;;;;;5.40;4.90;;;;;;;;;;5099746;28;20382;-81
2024/03/22 04:32:22;;;;;;;5.78;5.38;;;;;;;;;;5099610;28;20428;-80
2024/03/22 04:34:48;;;;;;;5.07;4.57;;;;;;;;;;5099419;28;20402;-80
2024/03/22 04:37:14;;;;;;;4.55;4.15;;;;;;;;;;5099134;28;20791;-81
2024/03/22 04:39:41;;;;;;;5.03;4.30;;;;;;;;;;5099498;28;20435;-81
2024/03/22 04:42:07;;;;;;;4.82;4.32;;;;;;;;;;5099521;28;20375;-81
2024/03/22 04:44:33;;;;;;;4.60;3.72;;;;;;;;;;5099745;28;20508;-81
2024/03/22 04:46:59;;;;;;;5.07;4.28;;;;;;;;;;5099438;28;20408;-81
2024/03/22 04:49:25;;;;;;;4.70;3.90;;;;;;;;;;5099274;28;20388;-81
2024/03/22 04:51:51;;;;;;;5.70;3.83;;;;;;;;;;5097732;28;20392;-81
2024/03/22 04:54:17;;;;;;;4.28;3.85;;;;;;;;;;5080009;28;20900;-81
2024/03/22 04:56:43;;;;;;;3.97;3.58;;;;;;;;;;5098684;28;20393;-81
2024/03/22 04:59:09;;;;;;;4.15;3.75;;;;;;;;;;5098479;28;20378;-81
2024/03/22 05:01:35;;;;;;;4.38;3.97;;;;;;;;;;5098537;28;20370;-81
2024/03/22 05:04:01;;;;;;;4.30;3.92;;;;;;;;;;5094059;28;20404;-81
2024/03/22 05:06:27;;;;;;;4.70;3.88;;;;;;;;;;5095674;28;20426;-81
2024/03/22 05:08:53;;;;;;;4.47;3.90;;;;;;;;;;5091761;28;20412;-81
2024/03/22 05:11:18;;;;;;;4.35;3.95;;;;;;;;;;5101547;28;20374;-81
2024/03/22 05:13:45;;;;;;;4.95;4.35;;;;;;;;;;5102023;28;20449;-81
2024/03/22 05:16:12;;;;;;;4.70;4.20;;;;;;;;;;5103484;28;20372;-81
2024/03/22 05:18:38;;;;;;;6.22;4.97;;;;;;;;;;5101822;28;20373;-81
2024/03/22 05:21:04;;;;;;;5.22;4.72;;;;;;;;;;5103729;28;20832;-81
2024/03/22 05:23:30;;;;;;;4.78;4.28;;;;;;;;;;5098531;28;20384;-80
2024/03/22 05:25:56;;;;;;;5.75;4.97;;;;;;;;;;5098593;28;20378;-81
2024/03/22 05:28:22;;;;;;;6.40;5.37;;;;;;;;;;5099152;28;20374;-81
2024/03/22 05:30:48;;;;;;;5.63;5.10;;;;;;;;;;5099399;28;20374;-81
2024/03/22 05:33:14;;;;;;;5.97;5.35;;;;;;;;;;5098939;28;20386;-81
2024/03/22 05:35:41;;;;;;;5.55;5.05;;;;;;;;;;5098989;28;20366;-81
2024/03/22 05:38:07;;;;;;;5.90;5.20;;;;;;;;;;5099362;28;20378;-81
2024/03/22 05:40:33;;;;;;;5.60;5.10;;;;;;;;;;5099663;28;20378;-81
2024/03/22 05:42:59;;;;;;;5.80;4.97;;;;;;;;;;5099243;28;20381;-81
2024/03/22 05:45:25;;;;;;;6.25;5.65;;;;;;;;;;5099740;28;20426;-81
2024/03/22 05:47:51;;;;;;;5.60;5.10;;;;;;;;;;5098405;28;20378;-81
2024/03/22 05:50:17;;;;;;;5.60;5.03;;;;;;;;;;5098385;28;20453;-81
2024/03/22 05:52:43;;;;;;;5.55;5.05;;;;;;;;;;5098692;28;20389;-81
2024/03/22 05:55:09;;;;;;;6.07;5.47;;;;;;;;;;5097762;28;20398;-81
2024/03/22 05:57:35;;;;;;;5.75;5.25;;;;;;;;;;5098852;28;20382;-81
2024/03/22 06:00:01;;;;;;;5.78;5.18;;;;;;;;;;5099312;28;20381;-81
2024/03/22 06:02:28;;;;;;;5.93;5.43;;;;;;;;;;5097466;28;20386;-81
2024/03/22 06:04:54;;;;;;;5.63;5.20;;;;;;;;;;5100313;28;20381;-81
2024/03/22 06:07:20;;;;;;;6.00;5.40;;;;;;;;;;5101777;28;20378;-81
2024/03/22 06:09:46;;;;;;;5.75;5.25;;;;;;;;;;5101266;28;20469;-81
2024/03/22 06:12:18;;;;;;;5.95;5.35;;;;;;;;;;5101292;28;20374;-81
2024/03/22 06:14:44;;;;;;;6.17;5.67;;;;;;;;;;5100131;28;20398;-81
2024/03/22 06:17:11;;;;;;;6.60;6.00;;;;;;;;;;5102485;28;20382;-81
2024/03/22 06:19:37;;;;;;;7.63;6.82;;;;;;;;;;5101831;28;20374;-81
2024/03/22 06:22:03;;;;;;;7.18;6.47;;;;;;;;;;5080864;28;20389;-81
2024/03/22 06:24:29;;;;;;;6.53;5.72;;;;;;;;;;5099025;28;20390;-81
2024/03/22 06:26:55;;;;;;;6.88;6.18;;;;;;;;;;5099390;28;20389;-81
2024/03/22 06:29:21;;;;;;;6.45;5.80;;;;;;;;;;5099244;28;20774;-81
2024/03/22 06:31:47;;;;;;;6.80;5.80;;;;;;;;;;5099779;28;20418;-82
2024/03/22 06:34:13;;;;;;;6.57;5.93;;;;;;;;;;5100628;28;20409;-81
2024/03/22 06:36:40;;;;;;;6.60;6.07;;;;;;;;;;5101504;28;20390;-80
2024/03/22 06:39:06;;;;;;;6.30;5.70;;;;;;;;;;5102431;28;20849;-80
2024/03/22 06:41:33;;;;;;;7.32;6.63;;;;;;;;;;5103941;28;20848;-81
2024/03/22 06:43:59;;;;;;;7.28;6.47;;;;;;;;;;5103367;28;20434;-80
2024/03/22 06:46:25;;;;;;;6.88;6.28;;;;;;;;;;5102230;28;20432;-80
2024/03/22 06:48:51;;;;;;;6.68;6.00;;;;;;;;;;5084331;28;20429;-80
2024/03/22 06:51:17;;;;;;;7.55;6.50;;;;;;;;;;5103961;28;20398;-81
2024/03/22 06:53:43;;;;;;;7.18;6.50;;;;;;;;;;5102352;28;20740;-81
2024/03/22 06:56:11;;;;;;;8.02;6.65;;;;;;;;;;5102780;28;20378;-81
2024/03/22 06:58:37;;;;;;;7.13;6.43;;;;;;;;;;5102816;28;20374;-81
2024/03/22 07:01:03;;;;;;;7.20;6.55;;;;;;;;;;5101633;28;20377;-81
2024/03/22 07:03:29;;;;;;;7.03;6.32;;;;;;;;;;5101995;28;20852;-81
2024/03/22 07:05:56;;;;;;;8.02;6.32;;;;;;;;;;5102123;28;20447;-81
2024/03/22 07:08:22;;;;;;;6.72;6.13;;;;;;;;;;5100534;28;20436;-81
2024/03/22 07:10:48;;;;;;;6.95;6.35;;;;;;;;;;5101530;28;20429;-80
2024/03/22 07:13:14;;;;;;;8.00;6.63;;;;;;;;;;5099286;28;20374;-80
2024/03/22 07:15:39;;;;;;;7.03;6.38;;;;;;;;;;5100030;28;20678;-81
2024/03/22 07:18:06;;;;;;;7.53;6.70;;;;;;;;;;5101620;28;20451;-81
2024/03/22 07:20:32;;;;;;;8.45;6.82;;;;;;;;;;5101629;28;20377;-80
2024/03/22 07:22:58;;;;;;;10.23;8.88;;;;;;;;;;5100467;28;20378;-81
2024/03/22 07:25:24;;;;;;;11.47;8.70;;;;;;;;;;5100462;28;20384;-80
2024/03/22 07:27:49;;;;;;;9.25;8.23;;;;;;;;;;5102022;28;20389;-80
2024/03/22 07:30:15;;;;;;;9.85;8.75;;;;;;;;;;5101132;28;20390;-82
2024/03/22 07:32:41;;;;;;;9.30;8.10;;;;;;;;;;5101304;28;20406;-81
2024/03/22 07:35:07;;;;;;;8.65;7.70;;;;;;;;;;5100911;28;20465;-81
2024/03/22 07:37:35;;;;;;;9.98;8.13;;;;;;;;;;5100570;28;20469;-81
2024/03/22 07:40:01;;;;;;;9.07;7.90;;;;;;;;;;5101665;28;20390;-81
2024/03/22 07:42:27;;;;;;;9.80;8.90;;;;;;;;;;5101031;28;20913;-81
2024/03/22 07:44:53;;;;;;;9.32;8.35;;;;;;;;;;5100924;28;20459;-80
2024/03/22 07:47:19;;;;;;;11.85;9.10;;;;;;;;;;5101067;28;20374;-81
2024/03/22 07:49:45;;;;;;;11.02;9.35;;;;;;;;;;5101723;28;20374;-81
2024/03/22 07:52:11;;;;;;;9.40;8.55;;;;;;;;;;5101521;28;20370;-81
2024/03/22 07:54:37;;;;;;;10.40;9.40;;;;;;;;;;5100579;28;20882;-81
2024/03/22 07:57:03;;;;;;;10.93;9.30;;;;;;;;;;5100930;28;20400;-81
2024/03/22 07:59:30;;;;;;;9.07;8.07;;;;;;;;;;5100144;28;20374;-81
2024/03/22 08:01:57;;;;;;;8.70;7.90;;;;;;;;;;5101388;28;20434;-81
2024/03/22 08:04:23;;;;;;;8.88;7.55;;;;;;;;;;5101782;28;20704;-81
2024/03/22 08:06:51;;;;;;;11.20;8.55;;;;;;;;;;5100687;28;20390;-81
2024/03/22 08:09:18;;;;;;;9.55;8.35;;;;;;;;;;5101453;28;20417;-81
2024/03/22 08:11:44;;;;;;;8.55;7.85;;;;;;;;;;5101455;28;20377;-81
2024/03/22 08:14:10;;;;;;;9.35;8.38;;;;;;;;;;5101320;28;20867;-81
2024/03/22 08:16:36;;;;;;;9.15;8.25;;;;;;;;;;5101553;28;20515;-81
2024/03/22 08:19:02;;;;;;;9.05;7.60;;;;;;;;;;5100779;28;20461;-81
2024/03/22 08:21:28;;;;;;;7.83;6.47;;;;;;;;;;5101644;28;20477;-81
2024/03/22 08:23:54;;;;;;;5.95;5.35;;;;;;;;;;5101320;28;20450;-81
2024/03/22 08:26:20;;;;;;;5.72;5.22;;;;;;;;;;5101648;28;20635;-81
2024/03/22 08:28:47;;;;;;;5.78;5.15;;;;;;;;;;5100501;28;20386;-81
2024/03/22 08:31:13;;;;;;;6.50;5.60;;;;;;;;;;5101077;28;20406;-81
2024/03/22 08:33:39;;;;;;;6.22;5.55;;;;;;;;;;5101781;28;20421;-81
2024/03/22 08:36:06;;;;;;;5.93;5.32;;;;;;;;;;5100529;28;20882;-81
2024/03/22 08:38:32;;;;;;;6.82;4.80;;;;;;;;;;5101397;28;20381;-81
2024/03/22 08:40:58;;;;;;;5.80;5.15;;;;;;;;;;5101309;28;20375;-81
2024/03/22 08:43:25;;;;;;;5.55;5.05;;;;;;;;;;5101311;28;20366;-81
2024/03/22 08:45:52;;;;;;;5.33;4.70;;;;;;;;;;5087216;28;20404;-81
2024/03/22 08:48:18;;;;;;;4.60;4.20;;;;;;;;;;5100854;28;20378;-81
2024/03/22 08:50:44;;;;;;;3.80;3.50;;;;;;;;;;5100920;28;20374;-81
2024/03/22 08:53:10;;;;;;;4.32;3.50;;;;;;;;;;5100292;28;20374;-81
2024/03/22 08:55:36;;;;;;;3.80;3.42;;;;;;;;;;5100437;28;20393;-81
2024/03/22 08:58:03;;;;;;;3.83;3.53;;;;;;;;;;5100799;28;20370;-81
2024/03/22 09:00:29;;;;;;;3.45;3.08;;;;;;;;;;5099847;28;20408;-81
2024/03/22 09:02:55;;;;;;;3.28;2.88;;;;;;;;;;5100591;28;20385;-81
2024/03/22 09:05:21;;;;;;;4.33;3.10;;;;;;;;;;5100907;28;20460;-81
2024/03/22 09:07:48;;;;;;;3.67;3.15;;;;;;;;;;5099916;28;20374;-81
2024/03/22 09:10:14;;;;;;;3.38;2.70;;;;;;;;;;5100770;28;20424;-81
2024/03/22 09:12:41;;;;;;;3.75;3.20;;;;;;;;;;5100553;28;20465;-81
2024/03/22 09:15:07;;;;;;;4.75;3.25;;;;;;;;;;5100591;28;20404;-81
2024/03/22 09:17:33;;;;;;;3.30;3.00;;;;;;;;;;5099860;28;20436;-81
2024/03/22 09:19:59;;;;;;;3.50;3.10;;;;;;;;;;5100063;28;21558;-81
2024/03/22 09:22:25;;;;;;;2.85;2.65;;;;;;;;;;5100423;28;20374;-81
2024/03/22 09:24:51;;;;;;;3.70;2.83;;;;;;;;;;5100631;28;20388;-81
2024/03/22 09:27:20;;;;;;;3.17;2.87;;;;;;;;;;5090901;28;20463;-81
2024/03/22 09:29:46;;;;;;;3.35;2.97;;;;;;;;;;5093524;28;20378;-81
2024/03/22 09:32:12;;;;;;;5.00;2.80;;;;;;;;;;5099554;28;20441;-81
2024/03/22 09:34:38;;;;;;;3.88;2.70;;;;;;;;;;5098012;28;20474;-81
2024/03/22 09:37:04;;;;;;;3.40;3.03;;;;;;;;;;5099958;28;20377;-81
2024/03/22 09:39:31;;;;;;;3.55;2.70;;;;;;;;;;5100267;28;20381;-81
2024/03/22 09:41:58;;;;;;;5.17;2.73;;;;;;;;;;5103061;28;20815;-81
2024/03/22 09:44:24;;;;;;;2.67;2.47;;;;;;;;;;5104156;28;20393;-81
2024/03/22 09:46:51;;;;;;;3.60;2.77;;;;;;;;;;5104031;28;20402;-81
2024/03/22 09:49:17;;;;;;;4.15;2.47;;;;;;;;;;5102702;28;20370;-81
2024/03/22 09:51:44;;;;;;;4.07;2.63;;;;;;;;;;5103229;28;20916;-81
2024/03/22 09:54:10;;;;;;;2.50;2.25;;;;;;;;;;5103692;28;20465;-81
2024/03/22 09:56:37;;;;;;;4.43;2.53;;;;;;;;;;5103899;28;20386;-81
2024/03/22 09:59:03;;;;;;;2.90;2.63;;;;;;;;;;5104250;28;20385;-81
2024/03/22 10:01:29;;;;;;;4.07;2.58;;;;;;;;;;5104263;28;20437;-81
2024/03/22 10:03:55;;;;;;;3.95;2.47;;;;;;;;;;5104352;28;20386;-81
2024/03/22 10:06:22;;;;;;;3.78;2.70;;;;;;;;;;5104664;28;20472;-81
2024/03/22 10:08:48;;;;;;;3.30;2.80;;;;;;;;;;5104200;28;20384;-81
2024/03/22 10:11:14;;;;;;;3.58;2.60;;;;;;;;;;5103573;28;20416;-81
2024/03/22 10:13:40;;;;;;;5.18;2.70;;;;;;;;;;5104713;28;20406;-81
2024/03/22 10:16:07;;;;;;;2.90;2.53;;;;;;;;;;5104233;28;20861;-81
2024/03/22 10:18:34;;;;;;;5.07;2.97;;;;;;;;;;5104500;28;20374;-81
2024/03/22 10:21:04;;;;;;;5.80;2.30;;;;;;;;;;5104202;28;20378;-81
2024/03/22 10:23:30;;;;;;;2.63;2.00;;;;;;;;;;5104337;28;20465;-81
2024/03/22 10:26:00;;;;;;;3.50;2.22;;;;;;;;;;5104253;28;20389;-81
2024/03/22 10:28:26;;;;;;;3.13;2.30;;;;;;;;;;5103826;28;20382;-81
2024/03/22 10:30:52;;;;;;;2.45;2.10;;;;;;;;;;5104393;28;20388;-81
2024/03/22 10:33:23;;;;;;;3.60;2.40;;;;;;;;;;5103963;28;20386;-81
2024/03/22 10:35:53;;;;;;;2.35;2.03;;;;;;;;;;5104447;28;20386;-81
2024/03/22 10:38:20;;;;;;;2.40;2.20;;;;;;;;;;5103317;28;20370;-81
2024/03/22 10:40:46;;;;;;;3.53;2.22;;;;;;;;;;5103674;28;20413;-81
2024/03/22 10:43:16;;;;;;;3.05;2.10;;;;;;;;;;5103479;28;20398;-81
2024/03/22 10:45:42;;;;;;;2.80;2.10;;;;;;;;;;5103331;28;21103;-81
2024/03/22 10:48:11;;;;;;;3.80;2.33;;;;;;;;;;5102818;28;20446;-81
2024/03/22 10:50:44;;;;;;;2.73;2.27;;;;;;;;;;5102780;28;20876;-81
2024/03/22 10:53:22;;;;;;;2.22;2.03;;;;;;;;;;5104076;28;20378;-81
2024/03/22 10:55:49;;;;;;;2.63;2.20;;;;;;;;;;5103436;28;20412;-81
2024/03/22 10:58:16;;;;;;;4.53;2.17;;;;;;;;;;5103026;28;20366;-81
2024/03/22 11:00:43;;;;;;;3.63;2.20;;;;;;;;;;5103752;28;20400;-81
2024/03/22 11:03:09;;;;;;;2.72;2.00;;;;;;;;;;5103433;28;20377;-81
2024/03/22 11:05:35;;;;;;;3.97;3.03;;;;;;;;;;5103007;28;20394;-81
2024/03/22 11:08:05;;;;;;;3.88;2.40;;;;;;;;;;5101267;28;20386;-81
2024/03/22 11:10:34;;;;;;;3.00;2.40;;;;;;;;;;5103660;28;20382;-81
2024/03/22 11:13:07;;;;;;;2.72;2.13;;;;;;;;;;5102370;28;20415;-81
2024/03/22 11:15:33;;;;;;;2.80;2.25;;;;;;;;;;5102488;28;20488;-81
2024/03/22 11:18:00;;;;;;;3.20;2.40;;;;;;;;;;5100172;28;20374;-81
2024/03/22 11:20:29;;;;;;;3.60;2.20;;;;;;;;;;5103567;28;20439;-81
2024/03/22 11:22:56;;;;;;;3.55;2.42;;;;;;;;;;5103194;28;20891;-81
2024/03/22 11:25:22;;;;;;;4.32;2.10;;;;;;;;;;5102266;28;20386;-81
2024/03/22 11:27:48;;;;;;;3.70;2.30;;;;;;;;;;5102613;28;20374;-81
2024/03/22 11:30:16;;;;;;;3.17;1.98;;;;;;;;;;5101649;28;20438;-81
2024/03/22 11:32:44;;;;;;;3.45;1.90;;;;;;;;;;5102079;28;20465;-81
2024/03/22 11:35:11;;;;;;;2.22;2.00;;;;;;;;;;5102866;28;20394;-81
2024/03/22 11:37:37;;;;;;;3.47;2.00;;;;;;;;;;5102448;28;20374;-81
2024/03/22 11:40:05;;;;;;;2.63;1.70;;;;;;;;;;5103167;28;20374;-81
2024/03/22 11:42:31;;;;;;;2.83;1.90;;;;;;;;;;5102981;28;20379;-81
2024/03/22 11:44:58;;;;;;;2.90;1.88;;;;;;;;;;5102465;28;20407;-82
2024/03/22 11:47:24;;;;;;;3.47;2.28;;;;;;;;;;5099870;28;20402;-82
2024/03/22 11:49:51;;;;;;;2.38;1.90;;;;;;;;;;5100090;28;20381;-82
2024/03/22 11:52:17;;;;;;;3.65;2.10;;;;;;;;;;5100875;28;20747;-81
2024/03/22 11:54:43;;;;;;;2.53;1.90;;;;;;;;;;5099916;28;20422;-81
2024/03/22 11:57:12;;;;;;;2.97;2.05;;;;;;;;;;5100407;28;20455;-80
2024/03/22 11:59:40;;;;;;;2.58;2.10;;;;;;;;;;5098975;28;20374;-80
2024/03/22 12:02:09;;;;;;;3.47;1.80;;;;;;;;;;5098014;28;20859;-80
2024/03/22 12:04:35;;;;;;;3.38;1.80;;;;;;;;;;5098657;28;20451;-80
2024/03/22 12:07:01;;;;;;;2.47;1.90;;;;;;;;;;5080510;28;20612;-80
2024/03/22 12:09:27;;;;;;;2.80;1.90;;;;;;;;;;5099661;28;20446;-80
2024/03/22 12:11:55;;;;;;;2.60;1.70;;;;;;;;;;5098903;28;20387;-80
2024/03/22 12:14:21;;;;;;;2.60;2.00;;;;;;;;;;5098524;28;20414;-80
2024/03/22 12:16:47;;;;;;;3.90;1.40;;;;;;;;;;5097765;28;20384;-80
2024/03/22 12:19:13;;;;;;;1.70;1.30;;;;;;;;;;5097989;28;20382;-80
2024/03/22 12:21:39;;;;;;;1.90;1.70;;;;;;;;;;5099973;28;20451;-80
2024/03/22 12:24:05;;;;;;;2.45;1.83;;;;;;;;;;5099171;28;20844;-81
2024/03/22 12:26:31;;;;;;;1.90;1.50;;;;;;;;;;5097513;28;20397;-80
2024/03/22 12:28:58;;;;;;;3.03;1.50;;;;;;;;;;5099225;28;20389;-80
2024/03/22 12:31:24;;;;;;;3.42;1.70;;;;;;;;;;5099412;28;20418;-81
2024/03/22 12:33:50;;;;;;;1.52;1.20;;;;;;;;;;5098799;28;20482;-82
2024/03/22 12:36:16;;;;;;;2.28;1.50;;;;;;;;;;5097646;28;20406;-83
2024/03/22 12:38:42;;;;;;;2.50;1.40;;;;;;;;;;5097425;28;20427;-81
2024/03/22 12:41:08;;;;;;;2.28;1.40;;;;;;;;;;5099186;28;20366;-82
2024/03/22 12:43:34;;;;;;;1.88;1.20;;;;;;;;;;5097808;28;20524;-81
2024/03/22 12:46:00;;;;;;;1.53;1.10;;;;;;;;;;5097200;28;20422;-81
2024/03/22 12:48:26;;;;;;;1.70;1.27;;;;;;;;;;5095994;28;20374;-81
2024/03/22 12:50:53;;;;;;;1.75;1.02;;;;;;;;;;5096736;28;20385;-81
2024/03/22 12:53:19;;;;;;;2.33;1.23;;;;;;;;;;5096516;28;20385;-81
2024/03/22 12:55:45;;;;;;;3.23;1.23;;;;;;;;;;5097102;28;20366;-82
2024/03/22 12:58:11;;;;;;;2.30;1.33;;;;;;;;;;5096677;28;20409;-80
2024/03/22 13:00:37;;;;;;;1.55;1.15;;;;;;;;;;5097371;28;20383;-81
2024/03/22 13:03:03;;;;;;;1.40;0.88;;;;;;;;;;5097741;28;20370;-82
2024/03/22 13:05:30;;;;;;;1.75;1.10;;;;;;;;;;5097032;28;20852;-82
2024/03/22 13:07:56;;;;;;;2.55;1.08;;;;;;;;;;5096284;28;20867;-81
2024/03/22 13:10:23;;;;;;;2.33;0.90;;;;;;;;;;5096973;28;20397;-81
2024/03/22 13:12:48;;;;;;;1.55;0.95;;;;;;;;;;5096008;28;20386;-81
2024/03/22 13:15:14;;;;;;;2.43;1.03;;;;;;;;;;5099095;28;20434;-81
2024/03/22 13:17:41;;;;;;;2.00;0.93;;;;;;;;;;5100086;28;20741;-81
2024/03/22 13:20:12;;;;;;;1.92;0.90;;;;;;;;;;5100843;28;20382;-81
2024/03/22 13:22:38;;;;;;;1.52;0.98;;;;;;;;;;5100178;28;20852;-81
2024/03/22 13:25:06;;;;;;;3.38;0.90;;;;;;;;;;5100713;28;20408;-81
2024/03/22 13:27:33;;;;;;;1.40;1.00;;;;;;;;;;5101097;28;20457;-82
2024/03/22 13:29:59;;;;;;;2.42;0.90;;;;;;;;;;5101234;28;20370;-81
2024/03/22 13:32:25;;;;;;;2.63;1.00;;;;;;;;;;5100256;28;20459;-81
2024/03/22 13:34:51;;;;;;;2.57;1.10;;;;;;;;;;5098734;28;20565;-82
2024/03/22 13:37:17;;;;;;;2.03;0.90;;;;;;;;;;5099144;28;20385;-81
2024/03/22 13:39:43;;;;;;;1.88;1.13;;;;;;;;;;5098174;28;20870;-80
2024/03/22 13:42:09;;;;;;;2.60;1.17;;;;;;;;;;5099279;28;20450;-80
2024/03/22 13:44:35;;;;;;;1.40;0.80;;;;;;;;;;5098347;28;20389;-81
2024/03/22 13:47:01;;;;;;;1.50;0.75;;;;;;;;;;5098339;28;20389;-80
2024/03/22 13:49:28;;;;;;;1.15;0.70;;;;;;;;;;5098579;28;20385;-80
2024/03/22 13:51:54;;;;;;;2.30;0.70;;;;;;;;;;5097666;28;20382;-80
2024/03/22 13:54:20;;;;;;;3.38;0.80;;;;;;;;;;5097490;28;20389;-82
2024/03/22 13:56:46;;;;;;;1.48;0.70;;;;;;;;;;5097515;28;20374;-80
2024/03/22 13:59:14;;;;;;;1.40;0.90;;;;;;;;;;5097382;28;20381;-80
2024/03/22 14:01:41;;;;;;;1.30;0.65;;;;;;;;;;5097413;28;20774;-80
2024/03/22 14:04:07;;;;;;;0.90;0.70;;;;;;;;;;5097411;28;20374;-80
2024/03/22 14:06:33;;;;;;;4.80;0.80;;;;;;;;;;5097223;28;20414;-80
2024/03/22 14:09:01;;;;;;;4.20;0.90;;;;;;;;;;5096759;28;20374;-80
2024/03/22 14:11:30;;;;;;;3.30;1.00;;;;;;;;;;5097365;28;20880;-80
2024/03/22 14:13:57;;;;;;;1.88;0.70;;;;;;;;;;5097021;28;20578;-80
2024/03/22 14:16:23;;;;;;;1.42;0.70;;;;;;;;;;5095880;28;20393;-80
2024/03/22 14:18:49;;;;;;;2.15;0.80;;;;;;;;;;5096815;28;20381;-80
2024/03/22 14:21:19;;;;;;;2.55;0.82;;;;;;;;;;5097285;28;20431;-80
2024/03/22 14:23:48;;;;;;;1.00;0.80;;;;;;;;;;5083728;28;20401;-80
2024/03/22 14:26:14;;;;;;;2.07;0.80;;;;;;;;;;5097174;28;20473;-80
2024/03/22 14:28:40;;;;;;;0.95;0.80;;;;;;;;;;5098579;28;20370;-80
2024/03/22 14:31:10;;;;;;;1.92;0.90;;;;;;;;;;5097338;28;20772;-80
2024/03/22 14:33:36;;;;;;;1.20;0.55;;;;;;;;;;5097435;28;20382;-81
2024/03/22 14:36:03;;;;;;;1.20;0.68;;;;;;;;;;5097059;28;20389;-81
2024/03/22 14:38:29;;;;;;;0.95;0.73;;;;;;;;;;5096250;28;20844;-81